Kagoshima, Japan

7:06 AM JST on December 07, 2016 (GMT +0900)
国道225号線 | | Change Station

Elev 19 ft 31.56 °N, 130.55 °E | Updated 9 minutes ago

Clear
Clear
43.7 °F
Feels Like 44 °F
N
0.6
Wind Variable Wind from West
Gusts 1.9 mph

Today
High -- | Low -- °F
--% Chance of Precip.
Yesterday
High -- | Low -- °F
Precip. -- in
Pressure 30.15 in
Visibility -9999.0 miles
Clouds
Windchill 44 °F
Dew Point 35 °F
Humidity 70%
Rainfall Not available.
Snow Depth Not available.
7:04 AM 5:14 PM
Waxing Crescent, 45% visible
METAR RJFK 062100Z 35004KT CAVOK 02/02 Q1021
Pressure 30.15 in
Visibility -9999.0 miles
Clouds
Windchill 44 °F
Dew Point 35 °F
Humidity 70%
Rainfall Not available.
Snow Depth Not available.
7:04 AM 5:14 PM
Waxing Crescent, 45% visible
METAR RJFK 062100Z 35004KT CAVOK 02/02 Q1021

10-Day Weather Forecast

No radar image for this location.
×

Almanac

Astronomy

Dec. 07, 2016 Rise Set
Actual Time
Civil Twilight
Nautical Twilight
Astronomical Twilight
Moon
Length of Visible Light
Length of Day
Tomorrow will be .
, % of the Moon is Illuminated

Today's Extremes

Country Highs Country Lows

Community

WunderPhotos

Upload Photos

1,956,037 photos uploaded!

WunderBlog® & News

Nearby

Air Quality

  Air Quality AQ Index Pollutant
Not available.

Snow Depth

Station Depth Elevation

Earthquake Activity

City Distance Mag. Time & Date
Minimum magnitude displayed is 2.5.

Coastal Water Temperatures

Place Temperature

Stations

Nearby Weather Stations

Station Location Temp. Windchill Dew Point Humidity Wind Precip. Elev Updated Type